createdAt,value
2019-05-03T00:02:22.223Z,88.83
2019-05-03T00:04:54.987Z,89.15
2019-05-03T00:07:24.271Z,89.41
2019-05-03T00:09:53.543Z,89.08
2019-05-03T00:12:23.050Z,88.85
2019-05-03T00:14:55.164Z,88.17
2019-05-03T00:17:24.822Z,88.53
2019-05-03T00:19:54.132Z,88.47
2019-05-03T00:22:23.387Z,88.78
2019-05-03T00:25:05.379Z,88.33
2019-05-03T00:27:23.934Z,88.80
2019-05-03T00:29:53.312Z,88.42
2019-05-03T00:32:24.949Z,88.19
2019-05-03T00:34:56.134Z,87.99
2019-05-03T00:37:27.464Z,88.05
2019-05-03T00:40:07.159Z,88.12
2019-05-03T00:42:36.774Z,87.86
2019-05-03T00:45:08.121Z,87.80
2019-05-03T00:47:37.450Z,87.87
2019-05-03T00:50:06.965Z,88.53
2019-05-03T00:52:36.345Z,88.50
2019-05-03T00:55:16.148Z,89.27
2019-05-03T00:57:37.411Z,89.60
2019-05-03T01:00:07.622Z,89.17
2019-05-03T01:02:37.221Z,88.89
2019-05-03T01:05:07.040Z,88.85
2019-05-03T01:07:36.292Z,89.23
2019-05-03T01:10:06.134Z,89.28
2019-05-03T01:12:35.641Z,88.60
2019-05-03T01:15:06.867Z,88.63
2019-05-03T01:17:36.975Z,88.09
2019-05-03T01:20:06.909Z,88.15
2019-05-03T01:22:36.288Z,87.94
2019-05-03T01:25:06.041Z,88.00
2019-05-03T01:27:35.301Z,88.24
2019-05-03T01:30:05.682Z,88.25
2019-05-03T01:32:35.235Z,88.41
2019-05-03T01:35:04.733Z,88.40
2019-05-03T01:37:33.978Z,88.73
2019-05-03T01:40:03.664Z,89.02
2019-05-03T01:42:32.965Z,88.53
2019-05-03T01:45:02.278Z,88.90
2019-05-03T01:47:41.673Z,89.31
2019-05-03T01:50:28.282Z,89.24
2019-05-03T01:52:58.415Z,89.53
2019-05-03T01:55:46.666Z,89.66
2019-05-03T01:58:16.018Z,90.33
2019-05-03T02:00:45.286Z,90.60
2019-05-03T02:03:21.852Z,90.27
2019-05-03T02:05:52.954Z,90.40
2019-05-03T02:08:22.256Z,90.82
2019-05-03T02:10:51.855Z,90.66
2019-05-03T02:13:22.928Z,91.15
2019-05-03T02:15:52.903Z,91.47
2019-05-03T02:18:22.432Z,91.71
2019-05-03T02:20:52.532Z,91.99
2019-05-03T02:23:22.479Z,92.22
2019-05-03T02:25:58.389Z,92.30
2019-05-03T02:28:23.111Z,92.47
2019-05-03T02:30:53.421Z,92.85
2019-05-03T02:33:23.423Z,93.08
2019-05-03T02:35:53.423Z,92.98
2019-05-03T02:38:23.467Z,93.17
2019-05-03T02:40:53.358Z,93.42
2019-05-03T02:43:36.529Z,93.56
2019-05-03T02:46:25.444Z,94.02
2019-05-03T02:49:16.891Z,94.28
2019-05-03T02:51:46.295Z,94.10
2019-05-03T02:54:15.870Z,93.78
2019-05-03T02:56:46.096Z,94.10
2019-05-03T02:59:16.069Z,94.01
2019-05-03T03:01:46.578Z,94.27
2019-05-03T03:04:16.121Z,94.10
2019-05-03T03:06:48.323Z,94.37
2019-05-03T03:09:19.827Z,94.42
2019-05-03T03:11:51.194Z,94.40
2019-05-03T03:14:22.421Z,94.18
2019-05-03T03:16:55.978Z,94.47
2019-05-03T03:19:28.020Z,94.43
2019-05-03T03:22:00.541Z,94.58
2019-05-03T03:24:31.873Z,94.74
2019-05-03T03:27:05.349Z,94.80
2019-05-03T03:29:36.299Z,94.77
2019-05-03T03:32:30.331Z,94.92
2019-05-03T03:35:12.068Z,94.96
2019-05-03T03:37:37.901Z,95.22
2019-05-03T03:40:07.345Z,95.72
2019-05-03T03:42:38.913Z,95.55
2019-05-03T03:45:08.266Z,95.53
2019-05-03T03:47:39.325Z,95.45
2019-05-03T03:50:09.023Z,95.25
2019-05-03T03:52:40.623Z,95.39
2019-05-03T03:55:10.411Z,96.41
2019-05-03T03:57:40.377Z,96.21
2019-05-03T04:00:10.001Z,96.73
2019-05-03T04:02:40.385Z,96.61
2019-05-03T04:05:09.909Z,95.94
2019-05-03T04:07:39.796Z,93.58
2019-05-03T04:10:09.980Z,91.10
2019-05-03T04:12:40.868Z,85.00
2019-05-03T04:15:32.318Z,81.13
2019-05-03T04:18:29.686Z,81.70
2019-05-03T04:20:59.326Z,81.72
2019-05-03T04:23:31.863Z,82.56
2019-05-03T04:26:02.994Z,82.68
2019-05-03T04:28:36.192Z,83.68
2019-05-03T04:31:06.242Z,82.72
2019-05-03T04:33:35.962Z,80.78
2019-05-03T04:36:05.631Z,79.34
2019-05-03T04:38:35.702Z,77.78
2019-05-03T04:41:06.090Z,76.94
2019-05-03T04:43:35.778Z,76.09
2019-05-03T04:46:19.550Z,73.19
2019-05-03T04:48:48.918Z,72.43
2019-05-03T04:51:18.196Z,67.47
2019-05-03T04:53:52.847Z,64.38
2019-05-03T04:56:22.157Z,61.60
2019-05-03T04:58:51.450Z,56.30
2019-05-03T05:01:20.927Z,54.66
2019-05-03T05:03:50.253Z,52.44
2019-05-03T05:06:19.577Z,51.37
2019-05-03T05:08:49.021Z,50.07
2019-05-03T05:11:18.326Z,48.61
2019-05-03T05:13:47.709Z,46.77
2019-05-03T05:16:17.209Z,45.28
2019-05-03T05:18:51.326Z,43.32
2019-05-03T05:21:25.281Z,42.10
2019-05-03T05:24:05.570Z,42.25
2019-05-03T05:26:54.963Z,42.07
2019-05-03T05:29:26.551Z,41.20
2019-05-03T05:31:56.151Z,41.07
2019-05-03T05:34:25.509Z,40.82
2019-05-03T05:36:55.414Z,38.23
2019-05-03T05:39:24.876Z,38.11
2019-05-03T05:41:55.417Z,38.76
2019-05-03T05:44:24.949Z,38.10
2019-05-03T05:47:07.407Z,39.06
2019-05-03T05:49:58.801Z,39.86
2019-05-03T05:52:28.185Z,36.29
2019-05-03T05:55:22.497Z,37.80
2019-05-03T05:58:11.060Z,36.25
2019-05-03T06:00:56.014Z,39.21
2019-05-03T06:03:25.580Z,36.39
2019-05-03T06:05:56.479Z,34.82
2019-05-03T06:08:35.504Z,32.83
2019-05-03T06:11:21.986Z,34.29
2019-05-03T06:14:01.155Z,31.47
2019-05-03T06:16:52.135Z,33.24
2019-05-03T06:19:28.621Z,32.29
2019-05-03T06:22:25.814Z,32.71
2019-05-03T06:25:00.094Z,31.57
2019-05-03T06:27:36.092Z,32.55
2019-05-03T06:30:17.147Z,30.17
2019-05-03T06:32:46.444Z,29.73
2019-05-03T06:35:15.760Z,29.19
2019-05-03T06:37:46.088Z,27.90
2019-05-03T06:40:15.483Z,28.74
2019-05-03T06:42:52.379Z,28.49
2019-05-03T06:45:16.336Z,28.17
2019-05-03T06:47:49.771Z,25.91
2019-05-03T06:50:19.455Z,27.70
2019-05-03T06:52:48.147Z,26.39
2019-05-03T06:55:17.467Z,25.79
2019-05-03T06:57:49.743Z,26.73
2019-05-03T07:00:32.343Z,28.56
2019-05-03T07:03:25.185Z,28.94
2019-05-03T07:06:12.061Z,27.08
2019-05-03T07:09:05.206Z,24.03
2019-05-03T07:11:34.865Z,24.10
2019-05-03T07:14:05.291Z,22.96
2019-05-03T07:16:35.304Z,27.27
2019-05-03T07:19:04.704Z,26.28
2019-05-03T07:21:35.391Z,25.08
2019-05-03T07:24:05.409Z,24.10
2019-05-03T07:26:35.053Z,24.30
2019-05-03T07:29:04.982Z,23.52
2019-05-03T07:31:35.395Z,24.89
2019-05-03T07:34:05.275Z,22.50
2019-05-03T07:36:35.560Z,23.37
2019-05-03T07:39:07.730Z,21.68
2019-05-03T07:41:37.029Z,23.27
2019-05-03T07:44:06.327Z,23.45
2019-05-03T07:46:35.840Z,21.06
2019-05-03T07:49:05.393Z,22.06
2019-05-03T07:51:34.949Z,21.40
2019-05-03T07:54:04.749Z,21.97
2019-05-03T07:56:44.772Z,22.01
2019-05-03T07:59:15.012Z,20.74
2019-05-03T08:01:47.495Z,20.51
2019-05-03T08:04:17.097Z,19.53
2019-05-03T08:06:46.470Z,20.21
2019-05-03T08:09:15.769Z,21.20
2019-05-03T08:11:45.310Z,20.22
2019-05-03T08:14:18.008Z,19.11
2019-05-03T08:16:45.753Z,20.37
2019-05-03T08:19:15.399Z,19.69
2019-05-03T08:21:45.278Z,18.73
2019-05-03T08:24:15.016Z,19.09
2019-05-03T08:26:45.327Z,18.62
2019-05-03T08:29:18.678Z,18.30
2019-05-03T08:32:05.178Z,17.93
2019-05-03T08:34:39.535Z,17.49
2019-05-03T08:37:11.683Z,19.19
2019-05-03T08:39:41.020Z,19.29
2019-05-03T08:42:19.419Z,18.94
2019-05-03T08:44:48.724Z,22.14
2019-05-03T08:47:18.044Z,19.55
2019-05-03T08:49:47.469Z,20.79
2019-05-03T08:52:16.778Z,21.67
2019-05-03T08:54:46.058Z,22.33
2019-05-03T08:57:15.485Z,19.96
2019-05-03T08:59:44.828Z,20.80
2019-05-03T09:02:17.307Z,19.70
2019-05-03T09:04:46.153Z,20.90
2019-05-03T09:07:15.711Z,23.25
2019-05-03T09:10:05.454Z,24.17
2019-05-03T09:12:52.531Z,21.51
2019-05-03T09:15:22.048Z,21.56
2019-05-03T09:17:51.369Z,21.34
2019-05-03T09:20:20.671Z,22.22
2019-05-03T09:22:50.046Z,19.75
2019-05-03T09:25:19.338Z,22.27
2019-05-03T09:27:48.654Z,22.11
2019-05-03T09:30:18.549Z,24.83
2019-05-03T09:32:47.801Z,26.55
2019-05-03T09:35:29.761Z,28.55
2019-05-03T09:37:48.424Z,30.12
2019-05-03T09:40:17.714Z,30.12
2019-05-03T09:42:47.009Z,30.43
2019-05-03T09:45:16.880Z,30.43
2019-05-03T09:47:47.348Z,31.87
2019-05-03T09:50:16.816Z,32.65
2019-05-03T09:52:47.068Z,35.93
2019-05-03T09:55:25.371Z,37.11
2019-05-03T09:57:55.510Z,37.98
2019-05-03T10:00:24.862Z,40.59
2019-05-03T10:02:54.808Z,40.71
2019-05-03T10:05:25.533Z,43.21
2019-05-03T10:07:54.968Z,42.68
2019-05-03T10:10:24.875Z,44.81
2019-05-03T10:12:55.024Z,44.04
2019-05-03T10:15:41.783Z,43.14
2019-05-03T10:18:14.359Z,44.19
2019-05-03T10:20:44.647Z,49.23
2019-05-03T10:23:41.883Z,50.36
2019-05-03T10:26:11.581Z,49.45
2019-05-03T10:28:40.907Z,53.33
2019-05-03T10:31:10.877Z,53.37
2019-05-03T10:33:45.138Z,52.22
2019-05-03T10:36:15.467Z,51.91
2019-05-03T10:38:45.895Z,48.47
2019-05-03T10:41:15.651Z,50.27
2019-05-03T10:43:45.342Z,47.91
2019-05-03T10:46:15.982Z,46.99
2019-05-03T10:48:45.551Z,44.81
2019-05-03T10:51:15.921Z,40.74
2019-05-03T10:53:48.544Z,41.05
2019-05-03T10:56:23.111Z,39.70
2019-05-03T10:58:55.942Z,39.71
2019-05-03T11:01:50.497Z,39.05
2019-05-03T11:04:20.466Z,40.15
2019-05-03T11:06:49.790Z,40.24
2019-05-03T11:09:19.073Z,40.81
2019-05-03T11:11:48.588Z,40.07
2019-05-03T11:14:17.891Z,40.36
2019-05-03T11:16:47.227Z,39.78
2019-05-03T11:19:16.573Z,38.44
2019-05-03T11:21:45.886Z,38.38
2019-05-03T11:24:15.160Z,39.45
2019-05-03T11:26:46.330Z,40.29
2019-05-03T11:29:15.976Z,42.46
2019-05-03T11:32:11.515Z,41.92
2019-05-03T11:35:00.300Z,43.26
2019-05-03T11:37:47.167Z,44.89
2019-05-03T11:40:16.707Z,48.39
2019-05-03T11:42:46.380Z,51.99
2019-05-03T11:45:16.259Z,54.30
2019-05-03T11:47:45.949Z,55.31
2019-05-03T11:50:16.004Z,54.33
2019-05-03T11:52:47.159Z,54.95
2019-05-03T11:55:16.685Z,51.72
2019-05-03T11:57:46.364Z,53.10
2019-05-03T12:00:21.646Z,51.77
2019-05-03T12:02:56.590Z,51.36
2019-05-03T12:05:27.534Z,50.03
2019-05-03T12:07:57.195Z,52.34
2019-05-03T12:10:46.870Z,54.07
2019-05-03T12:13:04.902Z,52.75
2019-05-03T12:15:35.258Z,51.41
2019-05-03T12:18:08.230Z,52.28
2019-05-03T12:20:39.202Z,54.72
2019-05-03T12:23:09.671Z,54.66
2019-05-03T12:25:40.032Z,55.30
2019-05-03T12:28:10.113Z,55.14
2019-05-03T12:30:39.449Z,51.52
2019-05-03T12:33:08.860Z,50.91
2019-05-03T12:35:38.332Z,50.20
2019-05-03T12:38:07.618Z,48.87
2019-05-03T12:40:36.929Z,46.78
2019-05-03T12:43:06.580Z,45.59
2019-05-03T12:45:35.867Z,44.94
2019-05-03T12:48:05.598Z,45.34
2019-05-03T12:50:35.211Z,45.32
2019-05-03T12:53:05.061Z,46.87
2019-05-03T12:55:35.619Z,47.78
2019-05-03T12:58:06.286Z,46.81
2019-05-03T13:01:09.962Z,44.74
2019-05-03T13:03:50.779Z,45.62
2019-05-03T13:06:20.171Z,47.14
2019-05-03T13:08:49.496Z,49.25
2019-05-03T13:11:18.985Z,50.23
2019-05-03T13:13:48.354Z,50.20
2019-05-03T13:16:19.989Z,49.57
2019-05-03T13:18:49.294Z,48.37
2019-05-03T13:21:18.631Z,49.74
2019-05-03T13:23:48.044Z,51.15
2019-05-03T13:26:17.315Z,51.61
2019-05-03T13:28:46.911Z,49.82
2019-05-03T13:31:16.484Z,50.56
2019-05-03T13:33:45.801Z,51.49
2019-05-03T13:36:15.296Z,52.33
2019-05-03T13:38:45.306Z,50.26
2019-05-03T13:41:14.748Z,50.31
2019-05-03T13:43:45.459Z,50.43
2019-05-03T13:46:15.687Z,49.59
2019-05-03T13:48:48.840Z,49.85
2019-05-03T13:51:16.333Z,47.27
2019-05-03T13:53:45.595Z,49.85
2019-05-03T13:56:15.253Z,45.93
2019-05-03T13:58:44.920Z,47.46
2019-05-03T14:01:14.852Z,46.72
2019-05-03T14:03:45.267Z,45.82
2019-05-03T14:06:14.874Z,40.66
2019-05-03T14:08:45.478Z,43.34
2019-05-03T14:11:15.560Z,46.15
2019-05-03T14:13:45.166Z,48.95
2019-05-03T14:16:14.626Z,51.79
2019-05-03T14:18:45.680Z,50.07
2019-05-03T14:21:24.462Z,49.48
2019-05-03T14:24:12.843Z,51.25
2019-05-03T14:26:44.832Z,51.17
2019-05-03T14:29:14.860Z,52.78
2019-05-03T14:31:45.366Z,49.64
2019-05-03T14:34:17.347Z,50.86
2019-05-03T14:36:46.033Z,49.65
2019-05-03T14:39:15.348Z,46.67
2019-05-03T14:41:46.791Z,44.02
2019-05-03T14:44:18.130Z,43.16
2019-05-03T14:46:47.074Z,43.80
2019-05-03T14:49:16.381Z,42.79
2019-05-03T14:51:45.781Z,40.50
2019-05-03T14:54:15.437Z,40.49
2019-05-03T14:56:54.275Z,45.14
2019-05-03T14:59:42.556Z,49.77
2019-05-03T15:02:21.870Z,50.40
2019-05-03T15:04:51.170Z,50.98
2019-05-03T15:07:20.547Z,51.85
2019-05-03T15:09:50.078Z,51.71
2019-05-03T15:12:19.362Z,52.29
2019-05-03T15:14:48.694Z,54.39
2019-05-03T15:17:18.136Z,55.75
2019-05-03T15:19:47.420Z,56.83
2019-05-03T15:22:16.692Z,58.71
2019-05-03T15:24:46.061Z,58.52
2019-05-03T15:27:15.319Z,61.88
2019-05-03T15:29:44.875Z,60.93
2019-05-03T15:32:15.503Z,61.84
2019-05-03T15:34:44.902Z,64.08
2019-05-03T15:37:14.826Z,64.49
2019-05-03T15:39:45.135Z,65.58
2019-05-03T15:42:14.938Z,64.48
2019-05-03T15:45:06.604Z,63.08
2019-05-03T15:48:00.752Z,61.57
2019-05-03T15:50:30.190Z,59.43
2019-05-03T15:52:59.536Z,61.75
2019-05-03T15:55:28.901Z,60.00
2019-05-03T15:57:58.226Z,61.29
2019-05-03T16:00:27.474Z,61.50
2019-05-03T16:03:07.493Z,57.84
2019-05-03T16:05:27.905Z,59.37
2019-05-03T16:07:57.176Z,59.76
2019-05-03T16:10:26.531Z,58.73
2019-05-03T16:12:56.021Z,58.45
2019-05-03T16:15:25.444Z,56.75
2019-05-03T16:17:54.899Z,58.00
2019-05-03T16:20:25.189Z,57.88
2019-05-03T16:22:54.615Z,56.12
2019-05-03T16:25:25.071Z,57.26
2019-05-03T16:28:04.830Z,60.11
2019-05-03T16:30:42.751Z,57.88
2019-05-03T16:33:24.060Z,57.50
2019-05-03T16:35:44.513Z,58.71
2019-05-03T16:38:15.674Z,58.29
2019-05-03T16:40:45.271Z,56.83
2019-05-03T16:43:16.174Z,58.57
2019-05-03T16:45:45.962Z,59.61
2019-05-03T16:48:18.176Z,60.62
2019-05-03T16:50:46.256Z,59.39
2019-05-03T16:53:15.720Z,59.00
2019-05-03T16:55:44.997Z,59.50
2019-05-03T16:58:14.950Z,59.09
2019-05-03T17:00:45.628Z,58.40
2019-05-03T17:03:17.235Z,58.94
2019-05-03T17:06:03.314Z,59.68
2019-05-03T17:08:39.477Z,60.75
2019-05-03T17:11:10.830Z,61.30
2019-05-03T17:13:40.082Z,61.91
2019-05-03T17:16:09.469Z,61.80
2019-05-03T17:18:38.873Z,61.79
2019-05-03T17:21:08.327Z,62.89
2019-05-03T17:23:37.705Z,61.37
2019-05-03T17:26:07.043Z,61.27
2019-05-03T17:28:36.311Z,62.54
2019-05-03T17:31:05.696Z,61.61
2019-05-03T17:33:35.249Z,60.79
2019-05-03T17:36:05.102Z,61.81
2019-05-03T17:38:35.213Z,61.34
2019-05-03T17:41:22.349Z,61.05
2019-05-03T17:44:04.987Z,62.10
2019-05-03T17:46:34.788Z,62.45
2019-05-03T17:49:05.220Z,62.46
2019-05-03T17:51:52.025Z,65.02
2019-05-03T17:54:55.318Z,65.00
2019-05-03T17:57:34.926Z,63.57
2019-05-03T18:00:21.849Z,64.56
2019-05-03T18:02:51.280Z,65.43
2019-05-03T18:05:34.962Z,64.80
2019-05-03T18:08:15.873Z,65.51
2019-05-03T18:10:50.564Z,64.76
2019-05-03T18:13:20.053Z,65.95
2019-05-03T18:15:49.358Z,66.83
2019-05-03T18:18:18.738Z,65.94
2019-05-03T18:20:48.282Z,66.87
2019-05-03T18:23:17.510Z,68.11
2019-05-03T18:25:46.839Z,68.43
2019-05-03T18:28:16.175Z,67.66
2019-05-03T18:30:45.605Z,66.42
2019-05-03T18:33:15.409Z,67.00
2019-05-03T18:35:44.837Z,67.26
2019-05-03T18:38:14.787Z,66.59
2019-05-03T18:40:44.813Z,66.95
2019-05-03T18:43:21.751Z,66.61
2019-05-03T18:46:22.096Z,66.46
2019-05-03T18:48:51.613Z,66.73
2019-05-03T18:51:20.952Z,67.43
2019-05-03T18:53:50.582Z,68.51
2019-05-03T18:56:19.900Z,69.50
2019-05-03T18:58:49.217Z,69.64
2019-05-03T19:01:18.558Z,70.36
2019-05-03T19:03:50.371Z,71.53
2019-05-03T19:06:19.673Z,72.12
2019-05-03T19:09:06.800Z,73.46
2019-05-03T19:11:42.427Z,74.32
2019-05-03T19:14:14.889Z,75.27
2019-05-03T19:16:54.582Z,75.85
2019-05-03T19:19:26.901Z,76.52
2019-05-03T19:21:56.221Z,77.49
2019-05-03T19:24:25.523Z,78.24
2019-05-03T19:26:54.973Z,79.36
2019-05-03T19:29:24.981Z,79.55
2019-05-03T19:31:55.287Z,80.27
2019-05-03T19:34:26.878Z,80.54
2019-05-03T19:36:55.764Z,81.11
2019-05-03T19:39:25.383Z,81.52
2019-05-03T19:41:55.281Z,81.66
2019-05-03T19:44:24.692Z,81.79
2019-05-03T19:46:54.241Z,82.06
2019-05-03T19:49:24.651Z,82.45
2019-05-03T19:51:54.640Z,82.54
2019-05-03T19:54:24.117Z,82.77
2019-05-03T19:56:55.534Z,83.07
2019-05-03T20:00:01.716Z,83.11
2019-05-03T20:02:54.340Z,83.76
2019-05-03T20:05:36.313Z,83.90
2019-05-03T20:08:10.078Z,84.30
2019-05-03T20:10:39.477Z,85.09
2019-05-03T20:13:08.734Z,85.45
2019-05-03T20:15:38.052Z,85.10
2019-05-03T20:18:07.540Z,85.87
2019-05-03T20:20:36.771Z,85.30
2019-05-03T20:23:06.074Z,85.18
2019-05-03T20:25:35.447Z,84.63
2019-05-03T20:28:05.088Z,83.97
2019-05-03T20:30:34.934Z,83.61
2019-05-03T20:33:04.386Z,83.36
2019-05-03T20:35:35.643Z,83.73
2019-05-03T20:38:05.296Z,83.68
2019-05-03T20:40:35.153Z,83.96
2019-05-03T20:43:14.687Z,84.09
2019-05-03T20:45:52.070Z,83.75
2019-05-03T20:48:22.107Z,83.59
2019-05-03T20:50:51.369Z,83.80
2019-05-03T20:53:20.728Z,83.87
2019-05-03T20:55:50.068Z,83.59
2019-05-03T20:58:19.377Z,84.00
2019-05-03T21:00:48.693Z,84.20
2019-05-03T21:03:18.244Z,84.31
2019-05-03T21:05:47.549Z,84.49
2019-05-03T21:08:16.819Z,84.85
2019-05-03T21:10:46.220Z,85.21
2019-05-03T21:13:15.769Z,85.14
2019-05-03T21:15:59.556Z,85.30
2019-05-03T21:18:36.880Z,85.09
2019-05-03T21:21:14.605Z,85.00
2019-05-03T21:23:47.634Z,85.25
2019-05-03T21:26:17.080Z,85.49
2019-05-03T21:28:46.358Z,86.09
2019-05-03T21:31:15.801Z,86.45
2019-05-03T21:33:45.215Z,86.86
2019-05-03T21:36:15.122Z,87.39
2019-05-03T21:38:44.539Z,87.53
2019-05-03T21:41:15.652Z,87.93
2019-05-03T21:43:45.239Z,88.40
2019-05-03T21:46:25.433Z,88.59
2019-05-03T21:49:05.166Z,88.19
2019-05-03T21:51:34.757Z,86.87
2019-05-03T21:54:06.624Z,85.35
2019-05-03T21:56:35.717Z,85.01
2019-05-03T21:59:05.556Z,85.54
2019-05-03T22:01:37.492Z,85.89
2019-05-03T22:04:06.923Z,86.41
2019-05-03T22:06:36.257Z,87.61
2019-05-03T22:09:07.208Z,87.72
2019-05-03T22:11:36.601Z,88.00
2019-05-03T22:14:09.836Z,88.57
2019-05-03T22:16:58.331Z,88.13
2019-05-03T22:19:27.637Z,88.29
2019-05-03T22:22:14.941Z,88.53
2019-05-03T22:24:51.133Z,89.28
2019-05-03T22:27:21.796Z,90.14
2019-05-03T22:29:51.116Z,90.28
2019-05-03T22:32:20.516Z,90.34
2019-05-03T22:34:49.831Z,90.64
2019-05-03T22:37:19.121Z,91.42
2019-05-03T22:39:48.563Z,91.49
2019-05-03T22:42:18.099Z,92.16
2019-05-03T22:44:47.377Z,92.09
2019-05-03T22:47:16.946Z,92.24
2019-05-03T22:49:46.309Z,92.43
2019-05-03T22:52:15.660Z,92.70
2019-05-03T22:54:45.293Z,92.89
2019-05-03T22:57:15.278Z,93.14
2019-05-03T22:59:44.897Z,93.21
2019-05-03T23:02:16.831Z,93.25
2019-05-03T23:04:45.493Z,93.02
2019-05-03T23:07:15.044Z,92.72
2019-05-03T23:09:44.746Z,92.70
2019-05-03T23:12:14.099Z,92.94
2019-05-03T23:14:44.661Z,92.95
2019-05-03T23:17:14.920Z,93.07
2019-05-03T23:19:46.994Z,93.50
2019-05-03T23:22:28.708Z,93.51
2019-05-03T23:24:58.029Z,93.61
2019-05-03T23:27:27.262Z,93.60
2019-05-03T23:29:56.529Z,93.71
2019-05-03T23:32:25.991Z,93.75
2019-05-03T23:34:55.296Z,93.83
2019-05-03T23:37:24.742Z,93.87
2019-05-03T23:39:55.143Z,94.12
2019-05-03T23:42:24.592Z,94.19
2019-05-03T23:44:53.831Z,94.15
2019-05-03T23:47:30.426Z,94.20
2019-05-03T23:49:59.668Z,94.08
2019-05-03T23:52:36.149Z,94.18
2019-05-03T23:55:40.617Z,94.23
2019-05-03T23:58:10.247Z,94.26
